createdAt,value
2019-03-30T00:01:40.668Z,16.27
2019-03-30T00:04:09.934Z,16.70
2019-03-30T00:06:39.313Z,16.15
2019-03-30T00:09:09.441Z,17.40
2019-03-30T00:11:38.730Z,16.30
2019-03-30T00:14:08.079Z,16.30
2019-03-30T00:16:37.348Z,15.93
2019-03-30T00:19:06.700Z,16.20
2019-03-30T00:21:35.959Z,16.30
2019-03-30T00:24:05.388Z,16.12
2019-03-30T00:26:34.653Z,15.72
2019-03-30T00:29:03.946Z,16.02
2019-03-30T00:31:33.212Z,15.13
2019-03-30T00:34:02.547Z,15.90
2019-03-30T00:36:31.879Z,15.55
2019-03-30T00:39:01.166Z,15.70
2019-03-30T00:41:32.079Z,16.50
2019-03-30T00:44:01.376Z,15.58
2019-03-30T00:46:30.716Z,15.50
2019-03-30T00:49:00.007Z,16.07
2019-03-30T00:51:29.293Z,15.28
2019-03-30T00:53:58.575Z,15.23
2019-03-30T00:56:27.868Z,14.70
2019-03-30T00:58:57.145Z,15.95
2019-03-30T01:01:26.424Z,15.68
2019-03-30T01:03:55.832Z,14.25
2019-03-30T01:06:25.186Z,14.98
2019-03-30T01:08:54.447Z,15.40
2019-03-30T01:11:23.718Z,14.70
2019-03-30T01:13:52.980Z,15.63
2019-03-30T01:16:32.825Z,16.05
2019-03-30T01:19:02.096Z,15.00
2019-03-30T01:21:31.390Z,14.90
2019-03-30T01:24:00.647Z,15.68
2019-03-30T01:26:30.088Z,15.15
2019-03-30T01:28:59.365Z,15.28
2019-03-30T01:31:33.022Z,15.25
2019-03-30T01:34:04.818Z,15.83
2019-03-30T01:36:34.076Z,15.63
2019-03-30T01:39:04.495Z,15.80
2019-03-30T01:41:33.923Z,15.93
2019-03-30T01:44:03.198Z,16.27
2019-03-30T01:46:32.549Z,15.78
2019-03-30T01:49:01.848Z,15.28
2019-03-30T01:51:31.176Z,16.75
2019-03-30T01:54:00.562Z,15.95
2019-03-30T01:56:29.896Z,15.75
2019-03-30T01:58:59.243Z,16.35
2019-03-30T02:01:28.523Z,15.78
2019-03-30T02:03:57.931Z,15.80
2019-03-30T02:06:27.285Z,15.75
2019-03-30T02:08:56.558Z,15.30
2019-03-30T02:11:25.911Z,15.20
2019-03-30T02:13:55.257Z,15.15
2019-03-30T02:16:24.538Z,17.07
2019-03-30T02:18:53.803Z,16.07
2019-03-30T02:21:23.089Z,15.78
2019-03-30T02:24:11.801Z,15.55
2019-03-30T02:26:41.178Z,15.23
2019-03-30T02:29:10.438Z,16.23
2019-03-30T02:31:39.715Z,16.07
2019-03-30T02:34:08.937Z,16.40
2019-03-30T02:36:38.117Z,15.60
2019-03-30T02:39:07.310Z,15.72
2019-03-30T02:41:36.554Z,15.30
2019-03-30T02:44:07.562Z,15.43
2019-03-30T02:46:38.028Z,16.15
2019-03-30T02:49:07.288Z,16.90
2019-03-30T02:51:37.727Z,16.95
2019-03-30T02:54:06.964Z,15.95
2019-03-30T02:56:36.275Z,16.00
2019-03-30T02:59:05.449Z,15.38
2019-03-30T03:01:34.607Z,16.25
2019-03-30T03:04:03.785Z,16.12
2019-03-30T03:06:33.084Z,16.45
2019-03-30T03:09:03.342Z,17.05
2019-03-30T03:11:33.052Z,16.32
2019-03-30T03:14:02.290Z,16.32
2019-03-30T03:16:31.550Z,17.05
2019-03-30T03:19:00.868Z,17.15
2019-03-30T03:21:43.448Z,16.90
2019-03-30T03:24:21.989Z,16.27
2019-03-30T03:26:58.089Z,17.40
2019-03-30T03:29:30.731Z,15.45
2019-03-30T03:32:05.527Z,16.75
2019-03-30T03:34:37.739Z,16.23
2019-03-30T03:37:08.645Z,16.20
2019-03-30T03:39:37.843Z,16.20
2019-03-30T03:42:20.697Z,16.52
2019-03-30T03:44:51.845Z,15.28
2019-03-30T03:47:24.984Z,15.83
2019-03-30T03:49:59.258Z,16.73
2019-03-30T03:52:28.511Z,16.80
2019-03-30T03:54:57.743Z,16.40
2019-03-30T03:57:28.044Z,16.35
2019-03-30T03:59:57.632Z,16.57
2019-03-30T04:02:28.516Z,16.35
2019-03-30T04:04:58.732Z,17.67
2019-03-30T04:07:28.543Z,15.88
2019-03-30T04:09:58.157Z,16.20
2019-03-30T04:12:27.334Z,15.80
2019-03-30T04:14:56.583Z,16.30
2019-03-30T04:17:25.833Z,17.10
2019-03-30T04:19:54.981Z,16.87
2019-03-30T04:22:24.196Z,17.40
2019-03-30T04:24:53.372Z,17.75
2019-03-30T04:27:22.605Z,18.25
2019-03-30T04:29:51.799Z,18.00
2019-03-30T04:32:20.947Z,17.60
2019-03-30T04:34:50.132Z,18.75
2019-03-30T04:37:19.374Z,18.12
2019-03-30T04:39:48.565Z,17.80
2019-03-30T04:42:17.790Z,19.10
2019-03-30T04:44:46.974Z,18.87
2019-03-30T04:47:16.211Z,17.82
2019-03-30T04:49:45.470Z,18.92
2019-03-30T04:52:15.603Z,20.40
2019-03-30T04:54:44.765Z,19.85
2019-03-30T04:57:13.905Z,19.37
2019-03-30T04:59:43.070Z,19.85
2019-03-30T05:02:12.221Z,18.75
2019-03-30T05:04:41.421Z,19.05
2019-03-30T05:07:10.588Z,18.30
2019-03-30T05:09:39.751Z,19.62
2019-03-30T05:12:08.939Z,20.20
2019-03-30T05:14:43.092Z,19.12
2019-03-30T05:17:13.162Z,18.27
2019-03-30T05:19:42.401Z,18.67
2019-03-30T05:22:14.964Z,18.80
2019-03-30T05:24:42.444Z,17.73
2019-03-30T05:27:11.698Z,17.98
2019-03-30T05:29:42.056Z,19.98
2019-03-30T05:32:11.312Z,18.32
2019-03-30T05:34:40.702Z,17.73
2019-03-30T05:37:09.961Z,16.32
2019-03-30T05:39:41.219Z,17.12
2019-03-30T05:42:12.626Z,17.65
2019-03-30T05:44:44.420Z,17.37
2019-03-30T05:47:13.888Z,16.48
2019-03-30T05:52:48.874Z,16.65
2019-03-30T05:55:25.542Z,17.30
2019-03-30T05:58:12.248Z,17.32
2019-03-30T06:00:41.459Z,18.50
2019-03-30T06:03:10.876Z,16.62
2019-03-30T06:05:40.158Z,17.20
2019-03-30T06:08:09.348Z,20.52
2019-03-30T06:10:38.945Z,18.60
2019-03-30T06:13:08.349Z,19.55
2019-03-30T06:15:37.529Z,19.45
2019-03-30T06:18:06.770Z,19.75
2019-03-30T06:20:36.007Z,21.52
2019-03-30T06:23:05.183Z,23.70
2019-03-30T06:25:35.324Z,21.02
2019-03-30T06:28:04.518Z,17.90
2019-03-30T06:30:33.777Z,17.52
2019-03-30T06:33:02.999Z,18.02
2019-03-30T06:35:32.251Z,18.42
2019-03-30T06:38:01.486Z,17.37
2019-03-30T06:40:30.722Z,18.55
2019-03-30T06:42:59.903Z,19.10
2019-03-30T06:45:29.140Z,19.62
2019-03-30T06:47:58.311Z,19.57
2019-03-30T06:50:31.367Z,20.08
2019-03-30T06:53:00.542Z,19.65
2019-03-30T06:55:29.741Z,21.05
2019-03-30T06:58:00.323Z,20.08
2019-03-30T07:00:34.193Z,20.17
2019-03-30T07:03:04.641Z,19.65
2019-03-30T07:05:37.214Z,20.12
2019-03-30T07:08:07.251Z,20.25
2019-03-30T07:10:38.441Z,19.27
2019-03-30T07:13:07.413Z,20.27
2019-03-30T07:15:36.635Z,20.35
2019-03-30T07:18:05.893Z,22.40
2019-03-30T07:20:35.142Z,20.85
2019-03-30T07:23:11.602Z,20.32
2019-03-30T07:25:35.318Z,18.87
2019-03-30T07:28:04.600Z,21.55
2019-03-30T07:30:33.877Z,20.82
2019-03-30T07:33:03.133Z,19.87
2019-03-30T07:35:32.402Z,20.88
2019-03-30T07:38:01.717Z,20.88
2019-03-30T07:40:33.832Z,21.37
2019-03-30T07:43:01.846Z,24.60
2019-03-30T07:45:31.081Z,26.95
2019-03-30T07:48:01.527Z,24.85
2019-03-30T07:50:30.924Z,25.95
2019-03-30T07:53:00.256Z,23.00
2019-03-30T07:55:29.508Z,23.45
2019-03-30T07:57:59.123Z,24.92
2019-03-30T08:00:30.865Z,24.95
2019-03-30T08:02:59.318Z,26.07
2019-03-30T08:05:28.558Z,25.65
2019-03-30T08:07:57.718Z,26.02
2019-03-30T08:10:26.902Z,25.80
2019-03-30T08:12:56.295Z,25.65
2019-03-30T08:15:25.625Z,26.15
2019-03-30T08:17:54.880Z,26.82
2019-03-30T08:20:31.903Z,27.37
2019-03-30T08:23:01.205Z,24.67
2019-03-30T08:25:30.391Z,26.87
2019-03-30T08:28:02.262Z,25.77
2019-03-30T08:30:31.459Z,25.12
2019-03-30T08:33:00.622Z,25.88
2019-03-30T08:35:29.885Z,25.90
2019-03-30T08:37:59.710Z,26.95
2019-03-30T08:40:29.121Z,25.77
2019-03-30T08:42:58.635Z,26.35
2019-03-30T08:45:27.881Z,26.37
2019-03-30T08:47:57.163Z,27.77
2019-03-30T08:50:26.333Z,27.98
2019-03-30T08:52:55.592Z,27.13
2019-03-30T08:55:24.830Z,28.27
2019-03-30T08:57:54.012Z,28.75
2019-03-30T09:00:40.123Z,27.98
2019-03-30T09:05:37.831Z,27.27
2019-03-30T09:08:08.395Z,28.45
2019-03-30T09:10:37.606Z,29.00
2019-03-30T09:13:06.863Z,28.32
2019-03-30T09:15:36.098Z,28.65
2019-03-30T09:18:05.354Z,28.90
2019-03-30T09:20:34.585Z,28.02
2019-03-30T09:23:03.749Z,30.17
2019-03-30T09:25:34.405Z,28.15
2019-03-30T09:28:03.584Z,26.65
2019-03-30T09:30:32.749Z,26.52
2019-03-30T09:33:02.113Z,28.65
2019-03-30T09:35:31.427Z,26.48
2019-03-30T09:38:00.591Z,26.15
2019-03-30T09:40:29.846Z,26.42
2019-03-30T09:42:59.105Z,28.02
2019-03-30T09:45:28.332Z,26.30
2019-03-30T09:47:57.545Z,27.07
2019-03-30T09:50:26.790Z,27.90
2019-03-30T09:52:56.149Z,24.50
2019-03-30T09:55:27.173Z,25.52
2019-03-30T09:57:56.690Z,26.12
2019-03-30T10:00:25.873Z,26.68
2019-03-30T10:02:55.119Z,25.65
2019-03-30T10:05:24.503Z,24.20
2019-03-30T10:07:53.894Z,22.62
2019-03-30T10:10:23.122Z,25.12
2019-03-30T10:12:54.590Z,26.20
2019-03-30T10:15:24.001Z,26.73
2019-03-30T10:17:53.324Z,26.07
2019-03-30T10:20:22.479Z,25.40
2019-03-30T10:22:51.749Z,24.95
2019-03-30T10:25:21.064Z,26.93
2019-03-30T10:27:52.509Z,25.55
2019-03-30T10:30:21.676Z,25.45
2019-03-30T10:32:51.013Z,27.22
2019-03-30T10:35:21.971Z,26.40
2019-03-30T10:37:51.422Z,25.17
2019-03-30T10:40:22.865Z,25.52
2019-03-30T10:42:53.327Z,25.72
2019-03-30T10:45:22.727Z,25.32
2019-03-30T10:47:51.908Z,24.75
2019-03-30T10:50:21.265Z,25.48
2019-03-30T10:52:50.882Z,25.43
2019-03-30T10:55:24.809Z,28.62
2019-03-30T10:57:54.168Z,26.27
2019-03-30T11:00:26.860Z,25.15
2019-03-30T11:02:56.354Z,24.67
2019-03-30T11:05:25.776Z,24.80
2019-03-30T11:07:55.020Z,23.92
2019-03-30T11:10:24.221Z,23.07
2019-03-30T11:12:55.003Z,21.57
2019-03-30T11:15:24.477Z,22.25
2019-03-30T11:17:53.940Z,23.32
2019-03-30T11:20:24.062Z,21.97
2019-03-30T11:22:53.235Z,22.07
2019-03-30T11:25:22.417Z,21.37
2019-03-30T11:27:51.686Z,20.30
2019-03-30T11:30:20.882Z,20.77
2019-03-30T11:32:50.243Z,20.43
2019-03-30T11:35:19.484Z,18.90
2019-03-30T11:37:48.856Z,18.52
2019-03-30T11:40:18.039Z,19.40
2019-03-30T11:42:47.272Z,19.82
2019-03-30T11:45:16.462Z,19.37
2019-03-30T11:47:45.709Z,20.02
2019-03-30T11:50:14.930Z,15.88
2019-03-30T11:52:44.125Z,16.27
2019-03-30T11:55:21.595Z,16.57
2019-03-30T11:57:44.568Z,15.03
2019-03-30T12:00:13.911Z,15.15
2019-03-30T12:02:43.321Z,14.53
2019-03-30T12:05:12.586Z,15.83
2019-03-30T12:07:41.750Z,14.75
2019-03-30T12:10:14.041Z,14.20
2019-03-30T12:12:43.402Z,17.07
2019-03-30T12:15:12.733Z,17.05
2019-03-30T12:17:41.968Z,16.62
2019-03-30T12:20:11.214Z,17.50
2019-03-30T12:22:40.378Z,17.60
2019-03-30T12:25:09.623Z,16.00
2019-03-30T12:27:39.034Z,15.88
2019-03-30T12:30:08.346Z,17.82
2019-03-30T12:32:37.596Z,18.05
2019-03-30T12:35:07.218Z,17.95
2019-03-30T12:37:37.607Z,18.05
2019-03-30T12:40:07.320Z,17.30
2019-03-30T12:42:36.568Z,15.03
2019-03-30T12:45:07.505Z,16.05
2019-03-30T12:47:36.869Z,15.60
2019-03-30T12:50:07.273Z,15.05
2019-03-30T12:52:36.939Z,14.00
2019-03-30T12:55:06.155Z,13.90
2019-03-30T12:57:35.482Z,15.53
2019-03-30T13:00:07.839Z,12.15
2019-03-30T13:02:37.272Z,12.70
2019-03-30T13:05:07.596Z,12.18
2019-03-30T13:07:38.293Z,14.05
2019-03-30T13:10:07.519Z,14.65
2019-03-30T13:12:36.884Z,15.70
2019-03-30T13:15:06.922Z,12.50
2019-03-30T13:17:36.178Z,12.73
2019-03-30T13:20:06.057Z,11.65
2019-03-30T13:22:35.396Z,13.70
2019-03-30T13:25:05.541Z,11.97
2019-03-30T13:27:34.824Z,13.62
2019-03-30T13:30:07.616Z,13.35
2019-03-30T13:32:36.909Z,12.37
2019-03-30T13:35:06.071Z,15.95
2019-03-30T13:37:35.320Z,13.38
2019-03-30T13:40:06.207Z,15.23
2019-03-30T13:42:35.455Z,14.35
2019-03-30T13:45:06.086Z,19.80
2019-03-30T13:47:35.500Z,18.32
2019-03-30T13:50:06.467Z,15.48
2019-03-30T13:52:35.703Z,15.32
2019-03-30T13:55:05.765Z,15.78
2019-03-30T13:57:35.058Z,15.30
2019-03-30T14:00:07.083Z,15.68
2019-03-30T14:02:36.400Z,15.55
2019-03-30T14:05:06.863Z,17.75
2019-03-30T14:07:37.150Z,15.88
2019-03-30T14:10:07.274Z,15.50
2019-03-30T14:12:36.527Z,16.67
2019-03-30T14:15:09.173Z,16.27
2019-03-30T14:17:36.876Z,16.00
2019-03-30T14:20:07.322Z,15.83
2019-03-30T14:22:38.913Z,16.67
2019-03-30T14:25:08.333Z,16.82
2019-03-30T14:27:37.581Z,15.90
2019-03-30T14:30:09.847Z,16.25
2019-03-30T14:32:39.095Z,17.27
2019-03-30T14:35:08.436Z,17.27
2019-03-30T14:37:38.020Z,16.82
2019-03-30T14:40:08.093Z,16.40
2019-03-30T14:42:37.431Z,16.37
2019-03-30T14:45:07.293Z,21.90
2019-03-30T14:47:36.517Z,17.05
2019-03-30T14:50:08.576Z,16.23
2019-03-30T14:52:37.970Z,16.02
2019-03-30T14:55:08.042Z,16.27
2019-03-30T14:57:37.428Z,16.35
2019-03-30T15:00:11.753Z,16.73
2019-03-30T15:05:16.616Z,16.50
2019-03-30T15:07:45.867Z,17.52
2019-03-30T15:10:15.022Z,16.70
2019-03-30T15:12:44.407Z,17.62
2019-03-30T15:15:13.689Z,16.32
2019-03-30T15:17:43.041Z,18.45
2019-03-30T15:20:12.278Z,17.30
2019-03-30T15:23:02.633Z,18.50
2019-03-30T15:25:31.839Z,17.65
2019-03-30T15:28:01.148Z,18.02
2019-03-30T15:30:30.607Z,19.07
2019-03-30T15:33:03.255Z,17.77
2019-03-30T15:35:50.184Z,15.30
2019-03-30T15:38:22.721Z,13.60
2019-03-30T15:40:51.663Z,14.50
2019-03-30T15:43:20.955Z,13.65
2019-03-30T15:45:50.219Z,14.93
2019-03-30T15:48:19.509Z,16.17
2019-03-30T15:50:48.756Z,15.45
2019-03-30T15:53:18.134Z,17.23
2019-03-30T15:55:47.438Z,17.27
2019-03-30T15:58:16.806Z,17.07
2019-03-30T16:00:46.055Z,18.85
2019-03-30T16:03:15.271Z,18.12
2019-03-30T16:05:44.506Z,18.27
2019-03-30T16:08:13.669Z,18.40
2019-03-30T16:10:42.923Z,17.62
2019-03-30T16:13:14.573Z,18.65
2019-03-30T16:15:45.851Z,17.70
2019-03-30T16:18:15.181Z,17.40
2019-03-30T16:20:44.478Z,18.05
2019-03-30T16:23:13.685Z,17.75
2019-03-30T16:25:42.886Z,19.02
2019-03-30T16:28:12.064Z,18.10
2019-03-30T16:30:41.349Z,19.30
2019-03-30T16:33:11.781Z,17.70
2019-03-30T16:35:41.081Z,19.87
2019-03-30T16:38:16.148Z,18.52
2019-03-30T16:40:45.379Z,19.57
2019-03-30T16:43:14.614Z,18.75
2019-03-30T16:45:43.775Z,18.42
2019-03-30T16:48:24.925Z,18.60
2019-03-30T16:50:54.156Z,20.12
2019-03-30T16:53:23.425Z,19.32
2019-03-30T16:55:52.600Z,19.77
2019-03-30T16:58:21.879Z,18.57
2019-03-30T17:00:56.623Z,19.02
2019-03-30T17:03:22.060Z,18.80
2019-03-30T17:05:51.339Z,18.77
2019-03-30T17:08:20.623Z,20.32
2019-03-30T17:10:50.039Z,21.07
2019-03-30T17:13:31.954Z,20.25
2019-03-30T17:16:01.301Z,21.97
2019-03-30T17:18:31.751Z,19.90
2019-03-30T17:21:01.043Z,20.43
2019-03-30T17:23:30.399Z,20.80
2019-03-30T17:25:59.753Z,20.80
2019-03-30T17:28:29.029Z,22.25
2019-03-30T17:30:58.359Z,22.58
2019-03-30T17:33:27.594Z,23.22
2019-03-30T17:35:56.865Z,21.85
2019-03-30T17:38:26.946Z,21.00
2019-03-30T17:40:56.514Z,20.32
2019-03-30T17:43:25.758Z,19.95
2019-03-30T17:45:54.985Z,20.92
2019-03-30T17:48:26.991Z,20.75
2019-03-30T17:50:58.178Z,21.25
2019-03-30T17:53:28.513Z,20.88
2019-03-30T17:55:57.820Z,21.40
2019-03-30T17:58:27.080Z,20.12
2019-03-30T18:00:56.414Z,20.40
2019-03-30T18:03:25.796Z,24.27
2019-03-30T18:05:55.111Z,19.35
2019-03-30T18:08:24.421Z,21.45
2019-03-30T18:10:53.653Z,19.00
2019-03-30T18:13:22.884Z,19.82
2019-03-30T18:15:52.238Z,20.48
2019-03-30T18:18:21.651Z,19.85
2019-03-30T18:20:50.890Z,19.17
2019-03-30T18:23:20.250Z,20.02
2019-03-30T18:25:49.538Z,20.43
2019-03-30T18:28:26.992Z,19.80
2019-03-30T18:30:49.730Z,19.60
2019-03-30T18:33:20.281Z,20.60
2019-03-30T18:35:49.612Z,20.50
2019-03-30T18:38:18.893Z,21.65
2019-03-30T18:40:48.173Z,21.42
2019-03-30T18:43:17.407Z,21.10
2019-03-30T18:45:46.729Z,20.50
2019-03-30T18:48:17.607Z,20.40
2019-03-30T18:50:46.966Z,20.52
2019-03-30T18:53:16.512Z,20.57
2019-03-30T18:55:45.749Z,21.02
2019-03-30T18:58:14.972Z,21.23
2019-03-30T19:00:44.263Z,21.52
2019-03-30T19:03:13.615Z,21.35
2019-03-30T19:05:44.144Z,23.73
2019-03-30T19:08:13.468Z,22.05
2019-03-30T19:10:42.741Z,22.55
2019-03-30T19:13:12.101Z,21.68
2019-03-30T19:15:41.444Z,22.10
2019-03-30T19:18:11.852Z,20.75
2019-03-30T19:20:41.117Z,22.05
2019-03-30T19:23:10.409Z,20.80
2019-03-30T19:25:39.645Z,20.00
2019-03-30T19:28:08.866Z,20.77
2019-03-30T19:30:38.144Z,21.85
2019-03-30T19:33:07.383Z,21.75
2019-03-30T19:35:36.873Z,21.87
2019-03-30T19:38:06.100Z,21.62
2019-03-30T19:40:35.257Z,21.68
2019-03-30T19:43:04.554Z,21.87
2019-03-30T19:45:33.870Z,21.07
2019-03-30T19:48:03.222Z,22.42
2019-03-30T19:50:32.555Z,22.00
2019-03-30T19:53:01.748Z,22.30
2019-03-30T19:55:31.078Z,22.10
2019-03-30T19:58:00.392Z,22.80
2019-03-30T20:00:29.691Z,22.02
2019-03-30T20:02:59.032Z,22.58
2019-03-30T20:05:28.383Z,21.30
2019-03-30T20:08:11.174Z,22.73
2019-03-30T20:10:28.592Z,22.60
2019-03-30T20:12:57.990Z,22.52
2019-03-30T20:15:27.333Z,21.80
2019-03-30T20:17:56.616Z,22.05
2019-03-30T20:20:37.944Z,22.80
2019-03-30T20:23:09.438Z,20.65
2019-03-30T20:25:38.786Z,22.20
2019-03-30T20:28:08.222Z,21.55
2019-03-30T20:30:37.789Z,22.73
2019-03-30T20:33:08.240Z,22.87
2019-03-30T20:35:37.524Z,24.63
2019-03-30T20:38:06.887Z,23.10
2019-03-30T20:40:37.217Z,22.27
2019-03-30T20:43:06.571Z,21.60
2019-03-30T20:45:35.838Z,21.80
2019-03-30T20:48:05.132Z,21.77
2019-03-30T20:50:34.416Z,22.07
2019-03-30T20:53:03.650Z,21.40
2019-03-30T20:55:34.038Z,21.52
2019-03-30T20:58:03.445Z,21.35
2019-03-30T21:00:32.722Z,21.48
2019-03-30T21:03:04.440Z,21.87
2019-03-30T21:05:35.430Z,21.23
2019-03-30T21:08:04.814Z,22.37
2019-03-30T21:10:34.128Z,21.87
2019-03-30T21:13:03.487Z,21.05
2019-03-30T21:15:32.728Z,20.45
2019-03-30T21:18:01.986Z,21.80
2019-03-30T21:20:31.279Z,21.07
2019-03-30T21:23:01.523Z,21.42
2019-03-30T21:25:32.293Z,21.37
2019-03-30T21:28:01.524Z,20.75
2019-03-30T21:30:31.287Z,21.73
2019-03-30T21:33:00.477Z,20.55
2019-03-30T21:35:29.929Z,22.07
2019-03-30T21:37:59.205Z,21.60
2019-03-30T21:40:28.438Z,20.52
2019-03-30T21:42:57.768Z,20.97
2019-03-30T21:45:27.000Z,21.23
2019-03-30T21:47:56.327Z,21.12
2019-03-30T21:50:25.621Z,20.88
2019-03-30T21:52:54.923Z,20.50
2019-03-30T21:55:24.286Z,19.87
2019-03-30T21:57:53.563Z,20.40
2019-03-30T22:00:36.966Z,21.52
2019-03-30T22:03:06.408Z,19.92
2019-03-30T22:05:36.817Z,19.75
2019-03-30T22:08:06.255Z,19.15
2019-03-30T22:10:35.544Z,18.70
2019-03-30T22:13:04.951Z,20.48
2019-03-30T22:15:34.225Z,19.75
2019-03-30T22:18:03.508Z,18.37
2019-03-30T22:20:32.819Z,20.32
2019-03-30T22:23:02.056Z,21.02
2019-03-30T22:25:31.354Z,19.10
2019-03-30T22:28:00.590Z,19.50
2019-03-30T22:30:29.821Z,19.60
2019-03-30T22:32:59.140Z,19.57
2019-03-30T22:35:28.414Z,19.27
2019-03-30T22:37:57.790Z,19.15
2019-03-30T22:40:27.562Z,19.57
2019-03-30T22:42:56.824Z,19.15
2019-03-30T22:45:25.980Z,18.62
2019-03-30T22:47:55.221Z,18.87
2019-03-30T22:50:24.411Z,18.92
2019-03-30T22:52:53.636Z,19.20
2019-03-30T22:55:23.988Z,18.87
2019-03-30T22:57:53.137Z,18.73
2019-03-30T23:00:38.903Z,18.57
2019-03-30T23:03:08.136Z,17.70
2019-03-30T23:05:37.444Z,16.67
2019-03-30T23:08:06.746Z,17.62
2019-03-30T23:10:36.004Z,17.52
2019-03-30T23:13:06.511Z,18.67
2019-03-30T23:15:35.767Z,18.25
2019-03-30T23:18:04.996Z,17.15
2019-03-30T23:20:34.178Z,17.52
2019-03-30T23:23:03.357Z,17.70
2019-03-30T23:25:32.605Z,17.60
2019-03-30T23:28:01.910Z,18.40
2019-03-30T23:30:31.213Z,18.15
2019-03-30T23:33:00.521Z,16.87
2019-03-30T23:35:29.758Z,17.30
2019-03-30T23:37:59.011Z,17.80
2019-03-30T23:40:28.180Z,16.45
2019-03-30T23:42:57.510Z,17.20
2019-03-30T23:45:26.732Z,17.07
2019-03-30T23:47:56.018Z,15.88
2019-03-30T23:50:25.218Z,17.55
2019-03-30T23:52:54.762Z,17.95
2019-03-30T23:55:23.954Z,17.05
2019-03-30T23:57:53.184Z,16.70
